Time;durP1;ratioP1;P1;durP2;ratioP2;P2;SDS_P1;SDS_P2;PMS_P1;PMS_P2;Temp;Humidity;BMP_temperature;BMP_pressure;BME280_temperature;BME280_humidity;BME280_pressure;Samples;Min_cycle;Max_cycle;Signal;HPM_P1;HPM_P2
2022/02/27 00:00:35;;;;;;;;;;;16.10;33.20;;;;;;8332186;28;19995;-50
2022/02/27 00:04:35;;;;;;;;;;;16.00;33.20;;;;;;8331365;28;19917;-50
2022/02/27 00:08:36;;;;;;;;;;;16.00;33.40;;;;;;8331546;28;19917;-51
2022/02/27 00:12:36;;;;;;;;;;;16.00;33.20;;;;;;8331414;28;20051;-48
2022/02/27 00:16:37;;;;;;;;;;;16.00;33.20;;;;;;8331018;28;19959;-54
2022/02/27 00:20:39;;;;;;;;;;;16.00;33.20;;;;;;8331699;28;19913;-52
2022/02/27 00:24:39;;;;;;;;;;;16.00;33.10;;;;;;8331227;28;20366;-50
2022/02/27 00:28:41;;;;;;;;;;;16.00;33.70;;;;;;8330574;28;19921;-49
2022/02/27 00:32:42;;;;;;;;;;;16.00;33.10;;;;;;8330365;28;19925;-50
2022/02/27 00:36:44;;;;;;;;;;;16.00;33.20;;;;;;8330887;28;20050;-49
2022/02/27 00:40:44;;;;;;;;;;;16.00;33.20;;;;;;8330410;28;19919;-50
2022/02/27 00:44:44;;;;;;;;;;;16.00;33.20;;;;;;8330917;28;20321;-49
2022/02/27 00:48:45;;;;;;;;;;;16.00;33.20;;;;;;8330542;28;19918;-49
2022/02/27 00:52:45;;;;;;;;;;;15.90;33.20;;;;;;8330163;28;19925;-49
2022/02/27 00:56:46;;;;;;;;;;;16.00;33.20;;;;;;8330307;28;20472;-49
2022/02/27 01:00:46;;;;;;;;;;;16.00;33.20;;;;;;8330573;28;19917;-50
2022/02/27 01:04:47;;;;;;;;;;;15.90;33.10;;;;;;8329762;28;19917;-50
2022/02/27 01:08:47;;;;;;;;;;;15.90;33.10;;;;;;8330344;28;19917;-51
2022/02/27 01:12:48;;;;;;;;;;;15.90;33.20;;;;;;8329937;28;19922;-47
2022/02/27 01:16:48;;;;;;;;;;;15.90;33.10;;;;;;8329520;28;19918;-50
2022/02/27 01:20:49;;;;;;;;;;;15.90;33.10;;;;;;8330147;28;20275;-50
2022/02/27 01:24:49;;;;;;;;;;;15.90;33.20;;;;;;8329773;28;20293;-50
2022/02/27 01:28:50;;;;;;;;;;;15.90;33.20;;;;;;8329243;28;20487;-47
2022/02/27 01:32:50;;;;;;;;;;;15.90;33.20;;;;;;8329726;28;20355;-50
2022/02/27 01:36:51;;;;;;;;;;;15.90;33.20;;;;;;8329955;28;19925;-50
2022/02/27 01:40:51;;;;;;;;;;;16.00;33.20;;;;;;8329412;28;19917;-49
2022/02/27 01:44:52;;;;;;;;;;;16.00;33.10;;;;;;8336259;28;19924;-48
2022/02/27 01:48:52;;;;;;;;;;;16.00;33.00;;;;;;8335998;28;19959;-47
2022/02/27 01:52:52;;;;;;;;;;;16.00;32.90;;;;;;8335286;28;19969;-54
2022/02/27 01:56:53;;;;;;;;;;;16.00;32.80;;;;;;8336199;28;19935;-50
2022/02/27 02:00:56;;;;;;;;;;;16.00;32.90;;;;;;8334083;28;19918;-50
2022/02/27 02:04:56;;;;;;;;;;;16.00;32.90;;;;;;8325983;28;20286;-47
2022/02/27 02:08:57;;;;;;;;;;;16.00;32.80;;;;;;8335645;28;19917;-53
2022/02/27 02:12:57;;;;;;;;;;;16.00;32.90;;;;;;8335282;28;19928;-52
2022/02/27 02:16:58;;;;;;;;;;;15.90;32.80;;;;;;8334970;28;19918;-49
2022/02/27 02:20:59;;;;;;;;;;;16.00;32.80;;;;;;8334952;28;19932;-47
2022/02/27 02:24:59;;;;;;;;;;;16.00;32.90;;;;;;8334864;28;20465;-49
2022/02/27 02:29:00;;;;;;;;;;;15.90;32.90;;;;;;8334418;28;19921;-50
2022/02/27 02:33:00;;;;;;;;;;;15.90;32.90;;;;;;8334642;28;19925;-53
2022/02/27 02:37:01;;;;;;;;;;;15.90;32.90;;;;;;8334846;28;19940;-47
2022/02/27 02:41:01;;;;;;;;;;;15.90;32.90;;;;;;8333941;28;20283;-48
2022/02/27 02:45:02;;;;;;;;;;;15.90;32.90;;;;;;8334322;28;20004;-48
2022/02/27 02:49:03;;;;;;;;;;;15.90;32.90;;;;;;8334192;28;19919;-50
2022/02/27 02:53:04;;;;;;;;;;;15.90;32.90;;;;;;8332827;28;19956;-48
2022/02/27 02:57:04;;;;;;;;;;;15.90;32.90;;;;;;8334179;28;19920;-48
2022/02/27 03:01:05;;;;;;;;;;;15.90;32.90;;;;;;8332629;28;19917;-50
2022/02/27 03:05:06;;;;;;;;;;;15.90;32.90;;;;;;8333250;28;19952;-48
2022/02/27 03:09:06;;;;;;;;;;;15.90;32.90;;;;;;8333522;28;20003;-48
2022/02/27 03:13:07;;;;;;;;;;;15.80;32.90;;;;;;8333497;28;19944;-48
2022/02/27 03:17:07;;;;;;;;;;;15.80;32.90;;;;;;8333135;28;19913;-49
2022/02/27 03:21:08;;;;;;;;;;;15.80;33.00;;;;;;8333238;28;19921;-49
2022/02/27 03:25:08;;;;;;;;;;;15.80;33.00;;;;;;8333197;28;20385;-50
2022/02/27 03:29:09;;;;;;;;;;;15.80;32.90;;;;;;8332625;28;19921;-49
2022/02/27 03:33:10;;;;;;;;;;;15.80;32.90;;;;;;8333260;28;19996;-50
2022/02/27 03:37:10;;;;;;;;;;;15.80;33.00;;;;;;8332934;28;20047;-49
2022/02/27 03:41:11;;;;;;;;;;;15.80;32.90;;;;;;8331033;28;19948;-49
2022/02/27 03:45:12;;;;;;;;;;;15.80;32.90;;;;;;8330467;28;19917;-50
2022/02/27 03:49:13;;;;;;;;;;;15.80;32.90;;;;;;8331884;28;19970;-49
2022/02/27 03:53:13;;;;;;;;;;;15.80;32.80;;;;;;8331782;28;19925;-52
2022/02/27 03:57:14;;;;;;;;;;;15.80;33.00;;;;;;8332359;28;20000;-48
2022/02/27 04:01:14;;;;;;;;;;;15.80;32.80;;;;;;8331958;28;20003;-48
2022/02/27 04:05:16;;;;;;;;;;;15.70;32.90;;;;;;8331272;28;19925;-52
2022/02/27 04:09:16;;;;;;;;;;;15.70;32.80;;;;;;8331767;28;19964;-49
2022/02/27 04:13:17;;;;;;;;;;;15.70;32.90;;;;;;8331491;28;19970;-52
2022/02/27 04:17:17;;;;;;;;;;;15.70;33.00;;;;;;8331191;28;19917;-49
2022/02/27 04:21:18;;;;;;;;;;;15.70;33.00;;;;;;8331223;28;19917;-49
2022/02/27 04:25:18;;;;;;;;;;;15.80;33.00;;;;;;8329860;28;20279;-52
2022/02/27 04:29:20;;;;;;;;;;;15.90;33.00;;;;;;8330461;28;19988;-49
2022/02/27 04:33:20;;;;;;;;;;;15.90;32.90;;;;;;8331251;28;19954;-48
2022/02/27 04:37:22;;;;;;;;;;;15.90;32.90;;;;;;8331019;28;19917;-48
2022/02/27 04:41:22;;;;;;;;;;;15.90;32.80;;;;;;8330559;28;19917;-48
2022/02/27 04:45:23;;;;;;;;;;;16.00;32.80;;;;;;8330899;28;20352;-50
2022/02/27 04:49:23;;;;;;;;;;;15.90;32.70;;;;;;8330084;28;19928;-48
2022/02/27 04:53:24;;;;;;;;;;;15.90;32.60;;;;;;8330575;28;19921;-49
2022/02/27 04:57:24;;;;;;;;;;;16.00;32.60;;;;;;8330597;28;20297;-50
2022/02/27 05:01:24;;;;;;;;;;;16.00;32.70;;;;;;8329926;28;19963;-52
2022/02/27 05:05:25;;;;;;;;;;;15.90;32.60;;;;;;8330049;28;19917;-50
2022/02/27 05:09:25;;;;;;;;;;;15.90;32.60;;;;;;8328120;28;19960;-49
2022/02/27 05:13:26;;;;;;;;;;;15.90;32.70;;;;;;8329774;28;19979;-49
2022/02/27 05:17:26;;;;;;;;;;;15.90;32.70;;;;;;8335915;28;19913;-51
2022/02/27 05:21:27;;;;;;;;;;;15.90;32.70;;;;;;8339892;28;19952;-50
2022/02/27 05:25:27;;;;;;;;;;;15.90;32.70;;;;;;8340504;28;19913;-52
2022/02/27 05:29:28;;;;;;;;;;;15.80;32.70;;;;;;8340914;28;19913;-51
2022/02/27 05:33:28;;;;;;;;;;;15.80;32.70;;;;;;8340841;28;19924;-49
2022/02/27 05:37:28;;;;;;;;;;;15.80;32.70;;;;;;8340369;28;19924;-52
2022/02/27 05:41:29;;;;;;;;;;;15.80;32.70;;;;;;8340740;28;20262;-49
2022/02/27 05:45:29;;;;;;;;;;;15.80;32.80;;;;;;8340626;28;19913;-50
2022/02/27 05:49:30;;;;;;;;;;;15.80;32.80;;;;;;8340056;28;20395;-52
2022/02/27 05:53:30;;;;;;;;;;;15.80;32.80;;;;;;8340549;28;19932;-51
2022/02/27 05:57:31;;;;;;;;;;;15.70;32.80;;;;;;8340382;28;20271;-50
2022/02/27 06:01:31;;;;;;;;;;;15.80;32.90;;;;;;8340032;28;19920;-48
2022/02/27 06:05:32;;;;;;;;;;;15.70;32.80;;;;;;8340599;28;19963;-47
2022/02/27 06:09:32;;;;;;;;;;;15.70;32.70;;;;;;8340320;28;20048;-49
2022/02/27 06:13:32;;;;;;;;;;;15.70;32.80;;;;;;8340064;28;19959;-47
2022/02/27 06:17:35;;;;;;;;;;;15.70;32.80;;;;;;8339622;28;21281;-48
2022/02/27 06:21:35;;;;;;;;;;;15.70;32.80;;;;;;8340309;28;19917;-49
2022/02/27 06:25:36;;;;;;;;;;;15.70;32.80;;;;;;8339491;28;19914;-49
2022/02/27 06:29:36;;;;;;;;;;;15.70;32.80;;;;;;8335140;28;20389;-50
2022/02/27 06:33:37;;;;;;;;;;;15.70;32.80;;;;;;8334965;28;19983;-52
2022/02/27 06:37:37;;;;;;;;;;;15.60;32.70;;;;;;8334342;28;19949;-48
2022/02/27 06:41:38;;;;;;;;;;;15.70;32.80;;;;;;8334354;28;19916;-48
2022/02/27 06:45:38;;;;;;;;;;;15.70;32.80;;;;;;8334653;28;20297;-47
2022/02/27 06:49:39;;;;;;;;;;;15.70;32.80;;;;;;8333877;28;20012;-48
2022/02/27 06:53:39;;;;;;;;;;;15.70;32.70;;;;;;8334225;28;19947;-52
2022/02/27 06:57:40;;;;;;;;;;;15.70;32.80;;;;;;8334106;28;20341;-51
2022/02/27 07:01:40;;;;;;;;;;;15.70;32.80;;;;;;8333358;28;20297;-51
2022/02/27 07:05:41;;;;;;;;;;;15.60;32.70;;;;;;8333577;28;20429;-49
2022/02/27 07:09:41;;;;;;;;;;;15.60;32.70;;;;;;8333462;28;19917;-49
2022/02/27 07:13:46;;;;;;;;;;;15.60;32.80;;;;;;8333417;28;19928;-49
2022/02/27 07:17:46;;;;;;;;;;;15.60;32.80;;;;;;8333348;28;19975;-52
2022/02/27 07:21:47;;;;;;;;;;;15.60;32.70;;;;;;8333225;28;19918;-49
2022/02/27 07:25:47;;;;;;;;;;;15.60;32.70;;;;;;8332503;28;19976;-48
2022/02/27 07:29:47;;;;;;;;;;;15.70;32.70;;;;;;8333199;28;19917;-50
2022/02/27 07:33:49;;;;;;;;;;;15.70;32.70;;;;;;8333127;28;20005;-49
2022/02/27 07:37:49;;;;;;;;;;;15.60;32.70;;;;;;8332338;28;19921;-51
2022/02/27 07:41:50;;;;;;;;;;;15.70;32.70;;;;;;8332315;28;20140;-48
2022/02/27 07:45:50;;;;;;;;;;;15.60;32.70;;;;;;8332235;28;19924;-49
2022/02/27 07:49:51;;;;;;;;;;;15.60;32.70;;;;;;8331676;28;19925;-51
2022/02/27 07:53:51;;;;;;;;;;;15.70;32.70;;;;;;8332409;28;19921;-50
2022/02/27 07:57:52;;;;;;;;;;;15.70;32.70;;;;;;8332143;28;19917;-48
2022/02/27 08:01:52;;;;;;;;;;;15.70;32.60;;;;;;8331471;28;19917;-48
2022/02/27 08:05:53;;;;;;;;;;;15.80;32.60;;;;;;8331642;28;19940;-50
2022/02/27 08:09:53;;;;;;;;;;;15.80;32.60;;;;;;8330674;28;20369;-49
2022/02/27 08:13:54;;;;;;;;;;;15.80;32.50;;;;;;8331220;28;19928;-49
2022/02/27 08:17:54;;;;;;;;;;;15.80;32.60;;;;;;8331407;28;19960;-49
2022/02/27 08:21:55;;;;;;;;;;;15.80;32.60;;;;;;8331368;28;19960;-48
2022/02/27 08:25:57;;;;;;;;;;;15.80;32.60;;;;;;8330574;28;19929;-49
2022/02/27 08:29:58;;;;;;;;;;;15.80;32.70;;;;;;8331255;28;19928;-52
2022/02/27 08:33:58;;;;;;;;;;;15.80;32.70;;;;;;8331153;28;19959;-48
2022/02/27 08:37:59;;;;;;;;;;;15.80;32.70;;;;;;8330394;28;19932;-51
2022/02/27 08:42:01;;;;;;;;;;;15.80;32.70;;;;;;8330653;28;20381;-48
2022/02/27 08:46:01;;;;;;;;;;;15.80;32.80;;;;;;8330786;28;19917;-49
2022/02/27 08:50:02;;;;;;;;;;;15.80;32.70;;;;;;8330036;28;20379;-49
2022/02/27 08:54:03;;;;;;;;;;;15.80;32.70;;;;;;8329968;28;20015;-49
2022/02/27 08:58:03;;;;;;;;;;;15.80;32.70;;;;;;8330383;28;19917;-48
2022/02/27 09:02:05;;;;;;;;;;;15.80;32.70;;;;;;8329695;28;19931;-51
2022/02/27 09:06:05;;;;;;;;;;;15.80;32.70;;;;;;8330317;28;19913;-48
2022/02/27 09:10:08;;;;;;;;;;;15.80;32.70;;;;;;8329878;28;20349;-48
2022/02/27 09:14:08;;;;;;;;;;;15.80;32.70;;;;;;8329991;28;19947;-50
2022/02/27 09:18:09;;;;;;;;;;;15.80;32.80;;;;;;8329792;28;19921;-49
2022/02/27 09:22:09;;;;;;;;;;;15.80;32.70;;;;;;8329821;28;20322;-48
2022/02/27 09:26:10;;;;;;;;;;;15.80;32.70;;;;;;8329212;28;20071;-50
2022/02/27 09:30:12;;;;;;;;;;;15.80;32.70;;;;;;8329714;28;19952;-48
2022/02/27 09:34:12;;;;;;;;;;;15.80;32.70;;;;;;8329910;28;19917;-48
2022/02/27 09:38:13;;;;;;;;;;;15.90;32.80;;;;;;8329253;28;20350;-47
2022/02/27 09:42:14;;;;;;;;;;;15.80;32.70;;;;;;8329927;28;19917;-53
2022/02/27 09:46:14;;;;;;;;;;;15.90;32.80;;;;;;8329689;28;19913;-52
2022/02/27 09:50:15;;;;;;;;;;;15.90;32.80;;;;;;8329320;28;19925;-55
2022/02/27 09:54:16;;;;;;;;;;;15.90;32.80;;;;;;8329738;28;19921;-49
2022/02/27 09:58:16;;;;;;;;;;;15.90;32.80;;;;;;8329731;28;19917;-52
2022/02/27 10:02:17;;;;;;;;;;;15.90;32.80;;;;;;8329675;28;19971;-48
2022/02/27 10:06:18;;;;;;;;;;;15.90;33.00;;;;;;8335621;28;19921;-50
2022/02/27 10:10:19;;;;;;;;;;;15.90;32.70;;;;;;8335369;28;19971;-49
2022/02/27 10:14:23;;;;;;;;;;;15.90;32.70;;;;;;8335056;28;20374;-48
2022/02/27 10:18:24;;;;;;;;;;;15.90;32.70;;;;;;8335252;28;20267;-49
2022/02/27 10:22:28;;;;;;;;;;;16.00;32.80;;;;;;8334634;28;20000;-49
2022/02/27 10:26:30;;;;;;;;;;;16.00;32.80;;;;;;8335195;28;19913;-49
2022/02/27 10:30:34;;;;;;;;;;;16.00;32.70;;;;;;8333320;28;19974;-47
2022/02/27 10:34:36;;;;;;;;;;;16.00;32.80;;;;;;8334389;28;19917;-49
2022/02/27 10:42:37;;;;;;;;;;;16.00;32.80;;;;;;8334963;28;20329;-49
2022/02/27 10:46:38;;;;;;;;;;;16.00;32.70;;;;;;8333934;28;19944;-49
2022/02/27 10:50:39;;;;;;;;;;;16.10;32.70;;;;;;8333987;28;19928;-49
2022/02/27 10:54:40;;;;;;;;;;;16.10;32.60;;;;;;8334614;28;20321;-49
2022/02/27 10:58:44;;;;;;;;;;;16.10;32.80;;;;;;8333524;28;20278;-50
2022/02/27 11:02:47;;;;;;;;;;;16.10;32.70;;;;;;8332753;28;20241;-48
2022/02/27 11:06:48;;;;;;;;;;;16.10;32.60;;;;;;8333818;28;20465;-49
2022/02/27 11:10:50;;;;;;;;;;;16.10;32.70;;;;;;8333090;28;19925;-50
2022/02/27 11:14:50;;;;;;;;;;;16.10;32.70;;;;;;8332972;28;20401;-53
2022/02/27 11:18:51;;;;;;;;;;;16.10;32.70;;;;;;8333483;28;19921;-54
2022/02/27 11:22:52;;;;;;;;;;;16.10;32.70;;;;;;8332870;28;19921;-52
2022/02/27 11:26:53;;;;;;;;;;;16.20;32.70;;;;;;8333254;28;19913;-50
2022/02/27 11:30:59;;;;;;;;;;;16.10;32.70;;;;;;8332878;28;19925;-50
2022/02/27 11:34:59;;;;;;;;;;;16.20;32.70;;;;;;8332592;28;19928;-49
2022/02/27 11:39:01;;;;;;;;;;;16.20;32.80;;;;;;8332734;28;20008;-50
2022/02/27 11:43:02;;;;;;;;;;;16.20;32.60;;;;;;8332901;28;19917;-49
2022/02/27 11:47:04;;;;;;;;;;;16.20;32.70;;;;;;8332018;28;20282;-51
2022/02/27 11:51:04;;;;;;;;;;;16.20;32.70;;;;;;8332570;28;19921;-48
2022/02/27 11:55:07;;;;;;;;;;;16.20;32.70;;;;;;8332491;28;19957;-49
2022/02/27 11:59:09;;;;;;;;;;;16.20;32.70;;;;;;8331645;28;19923;-49
2022/02/27 12:03:28;;;;;;;;;;;16.30;32.70;;;;;;8332269;28;19921;-49
2022/02/27 12:07:28;;;;;;;;;;;16.20;32.70;;;;;;8331359;28;19921;-48
2022/02/27 12:11:33;;;;;;;;;;;16.30;32.70;;;;;;8331617;28;19957;-48
2022/02/27 12:15:34;;;;;;;;;;;16.30;32.70;;;;;;8331809;28;20404;-51
2022/02/27 12:19:34;;;;;;;;;;;16.30;32.70;;;;;;8331133;28;19924;-51
2022/02/27 12:23:35;;;;;;;;;;;16.30;32.60;;;;;;8331360;28;19924;-49
2022/02/27 12:27:39;;;;;;;;;;;16.30;32.60;;;;;;8330312;28;19917;-53
2022/02/27 12:31:40;;;;;;;;;;;16.30;32.70;;;;;;8330639;28;19925;-55
2022/02/27 12:35:40;;;;;;;;;;;16.30;32.70;;;;;;8331379;28;19967;-54
2022/02/27 12:39:41;;;;;;;;;;;16.30;32.60;;;;;;8330996;28;19921;-49
2022/02/27 12:43:42;;;;;;;;;;;16.40;32.60;;;;;;8330536;28;19921;-52
2022/02/27 12:47:42;;;;;;;;;;;16.40;32.60;;;;;;8331171;28;19917;-52
2022/02/27 12:51:43;;;;;;;;;;;16.40;32.60;;;;;;8330505;28;19933;-48
2022/02/27 12:55:43;;;;;;;;;;;16.40;32.60;;;;;;8330563;28;20347;-50
2022/02/27 12:59:44;;;;;;;;;;;16.40;32.60;;;;;;8330902;28;19944;-50
2022/02/27 13:03:58;;;;;;;;;;;16.40;32.60;;;;;;8330223;28;19914;-49
2022/02/27 13:08:03;;;;;;;;;;;16.40;32.70;;;;;;8330121;28;19924;-51
2022/02/27 13:12:14;;;;;;;;;;;16.40;32.60;;;;;;8330030;28;20451;-48
2022/02/27 13:16:24;;;;;;;;;;;16.40;32.60;;;;;;8330685;28;19917;-52
2022/02/27 13:20:24;;;;;;;;;;;16.40;32.60;;;;;;8330143;28;20316;-52
2022/02/27 13:24:35;;;;;;;;;;;16.50;32.60;;;;;;8330156;28;20007;-50
2022/02/27 13:28:36;;;;;;;;;;;16.40;32.60;;;;;;8329492;28;19914;-48
2022/02/27 13:32:37;;;;;;;;;;;16.50;32.70;;;;;;8330127;28;19922;-49
2022/02/27 13:36:38;;;;;;;;;;;16.50;32.60;;;;;;8330263;28;19917;-51
2022/02/27 13:40:39;;;;;;;;;;;16.50;32.60;;;;;;8335938;28;20428;-48
2022/02/27 13:44:46;;;;;;;;;;;16.50;32.60;;;;;;8336380;28;19925;-52
2022/02/27 13:48:46;;;;;;;;;;;16.50;32.60;;;;;;8336347;28;19921;-53
2022/02/27 13:53:03;;;;;;;;;;;16.50;32.50;;;;;;8335643;28;19968;-50
2022/02/27 13:57:08;;;;;;;;;;;16.50;32.50;;;;;;8336202;28;20285;-52
2022/02/27 14:01:16;;;;;;;;;;;16.50;32.60;;;;;;8336311;28;19940;-48
2022/02/27 14:05:23;;;;;;;;;;;16.50;32.50;;;;;;8315275;28;19972;-53
2022/02/27 14:09:23;;;;;;;;;;;16.50;32.50;;;;;;8323802;28;19924;-54
2022/02/27 14:13:24;;;;;;;;;;;16.50;32.50;;;;;;8335089;28;20003;-50
2022/02/27 14:17:24;;;;;;;;;;;16.50;32.50;;;;;;8335301;28;19955;-49
2022/02/27 14:21:27;;;;;;;;;;;16.50;32.50;;;;;;8335816;28;20366;-49
2022/02/27 14:25:27;;;;;;;;;;;16.50;32.50;;;;;;8334745;28;19932;-51
2022/02/27 14:29:37;;;;;;;;;;;16.50;32.40;;;;;;8335374;28;19932;-51
2022/02/27 14:33:39;;;;;;;;;;;16.50;32.40;;;;;;8334937;28;19921;-48
2022/02/27 14:37:39;;;;;;;;;;;16.50;32.40;;;;;;8334334;28;19917;-51
2022/02/27 14:41:41;;;;;;;;;;;16.60;32.40;;;;;;8334826;28;19913;-48
2022/02/27 14:45:42;;;;;;;;;;;16.50;32.40;;;;;;8334603;28;19967;-49
2022/02/27 14:49:43;;;;;;;;;;;16.50;32.40;;;;;;8332874;28;19935;-53
2022/02/27 14:53:43;;;;;;;;;;;16.60;32.40;;;;;;8334452;28;19925;-52
2022/02/27 14:57:46;;;;;;;;;;;16.50;32.30;;;;;;8334317;28;19913;-51
2022/02/27 15:01:46;;;;;;;;;;;16.60;32.40;;;;;;8334230;28;20008;-52
2022/02/27 15:05:47;;;;;;;;;;;16.60;33.00;;;;;;8333712;28;20386;-48
2022/02/27 15:09:47;;;;;;;;;;;16.60;32.40;;;;;;8333678;28;20275;-49
2022/02/27 15:13:48;;;;;;;;;;;16.50;32.30;;;;;;8333139;28;19924;-51
2022/02/27 15:17:48;;;;;;;;;;;16.60;32.40;;;;;;8333465;28;19924;-49
2022/02/27 15:21:49;;;;;;;;;;;16.50;32.30;;;;;;8333689;28;19917;-52
2022/02/27 15:25:49;;;;;;;;;;;16.60;32.30;;;;;;8332871;28;20381;-52
2022/02/27 15:29:50;;;;;;;;;;;16.60;32.40;;;;;;8333270;28;19960;-52
2022/02/27 15:33:51;;;;;;;;;;;16.60;32.40;;;;;;8332976;28;20315;-50
2022/02/27 15:37:52;;;;;;;;;;;16.60;32.30;;;;;;8332507;28;20389;-49
2022/02/27 15:41:52;;;;;;;;;;;16.50;32.30;;;;;;8332840;28;19959;-52
2022/02/27 15:45:53;;;;;;;;;;;16.60;32.40;;;;;;8332531;28;19981;-51
2022/02/27 15:49:54;;;;;;;;;;;16.60;32.30;;;;;;8332028;28;19917;-51
2022/02/27 15:53:55;;;;;;;;;;;16.60;32.40;;;;;;8332489;28;19975;-53
2022/02/27 15:57:57;;;;;;;;;;;16.60;32.40;;;;;;8332457;28;20369;-52
2022/02/27 16:01:58;;;;;;;;;;;16.60;32.30;;;;;;8331720;28;20020;-48
2022/02/27 16:05:58;;;;;;;;;;;16.50;32.40;;;;;;8331917;28;19945;-49
2022/02/27 16:09:59;;;;;;;;;;;16.50;32.30;;;;;;8331873;28;19921;-53
2022/02/27 16:14:01;;;;;;;;;;;16.60;32.30;;;;;;8331474;28;19917;-52
2022/02/27 16:18:02;;;;;;;;;;;16.60;32.30;;;;;;8331868;28;19970;-51
2022/02/27 16:22:03;;;;;;;;;;;16.60;32.40;;;;;;8332042;28;20404;-51
2022/02/27 16:26:03;;;;;;;;;;;16.60;32.40;;;;;;8331286;28;20301;-50
2022/02/27 16:30:05;;;;;;;;;;;16.50;32.30;;;;;;8327357;28;19931;-52
2022/02/27 16:34:06;;;;;;;;;;;16.60;32.40;;;;;;8331089;28;19917;-51
2022/02/27 16:38:07;;;;;;;;;;;16.60;32.30;;;;;;8330717;28;20007;-48
2022/02/27 16:42:09;;;;;;;;;;;16.50;32.30;;;;;;8330976;28;19959;-52
2022/02/27 16:46:13;;;;;;;;;;;16.60;32.40;;;;;;8330776;28;19917;-50
2022/02/27 16:50:13;;;;;;;;;;;16.50;32.30;;;;;;8330089;28;19972;-51
2022/02/27 16:54:14;;;;;;;;;;;16.50;32.40;;;;;;8330607;28;19960;-48
2022/02/27 16:58:14;;;;;;;;;;;16.50;32.40;;;;;;8330480;28;19913;-50
2022/02/27 17:02:14;;;;;;;;;;;16.50;32.40;;;;;;8330254;28;20366;-48
2022/02/27 17:06:15;;;;;;;;;;;16.50;32.40;;;;;;8330182;28;19917;-50
2022/02/27 17:10:15;;;;;;;;;;;16.50;32.50;;;;;;8329253;28;20334;-49
2022/02/27 17:14:16;;;;;;;;;;;16.50;32.50;;;;;;8328930;28;20273;-49
2022/02/27 17:18:16;;;;;;;;;;;16.50;32.50;;;;;;8330232;28;19913;-53
2022/02/27 17:22:17;;;;;;;;;;;16.50;32.50;;;;;;8330196;28;20390;-49
2022/02/27 17:26:18;;;;;;;;;;;16.50;32.50;;;;;;8329465;28;20009;-50
2022/02/27 17:30:18;;;;;;;;;;;16.50;32.50;;;;;;8329809;28;19933;-53
2022/02/27 17:34:19;;;;;;;;;;;16.50;32.50;;;;;;8329772;28;19917;-52
2022/02/27 17:38:20;;;;;;;;;;;16.50;32.50;;;;;;8329369;28;19920;-53
2022/02/27 17:42:21;;;;;;;;;;;16.50;32.50;;;;;;8330175;28;19913;-51
2022/02/27 17:46:21;;;;;;;;;;;16.50;32.40;;;;;;8329884;28;19921;-49
2022/02/27 17:50:22;;;;;;;;;;;16.50;32.60;;;;;;8329106;28;20351;-51
2022/02/27 17:54:22;;;;;;;;;;;16.50;32.60;;;;;;8329828;28;19968;-51
2022/02/27 17:58:25;;;;;;;;;;;16.50;32.60;;;;;;8329501;28;20450;-48
2022/02/27 18:02:26;;;;;;;;;;;16.40;32.60;;;;;;8329557;28;19924;-52
2022/02/27 18:06:26;;;;;;;;;;;16.40;32.50;;;;;;8327737;28;20417;-49
2022/02/27 18:10:26;;;;;;;;;;;16.40;32.50;;;;;;8329361;28;19932;-50
2022/02/27 18:14:28;;;;;;;;;;;16.40;32.60;;;;;;8329629;28;20267;-49
2022/02/27 18:18:29;;;;;;;;;;;16.40;33.10;;;;;;8329474;28;19921;-48
2022/02/27 18:22:29;;;;;;;;;;;16.40;32.60;;;;;;8328757;28;19917;-49
2022/02/27 18:26:30;;;;;;;;;;;16.40;32.50;;;;;;8334552;28;19963;-51
2022/02/27 18:30:32;;;;;;;;;;;16.40;32.50;;;;;;8335047;28;19978;-50
2022/02/27 18:34:32;;;;;;;;;;;16.40;32.50;;;;;;8334335;28;19928;-49
2022/02/27 18:38:33;;;;;;;;;;;16.40;32.40;;;;;;8335148;28;20277;-51
2022/02/27 18:42:33;;;;;;;;;;;16.40;32.50;;;;;;8334733;28;20016;-49
2022/02/27 18:46:34;;;;;;;;;;;16.40;32.50;;;;;;8333843;28;19924;-49
2022/02/27 18:50:34;;;;;;;;;;;16.40;32.50;;;;;;8334513;28;19925;-50
2022/02/27 18:54:35;;;;;;;;;;;16.40;32.60;;;;;;8334084;28;19925;-51
2022/02/27 18:58:35;;;;;;;;;;;16.40;32.50;;;;;;8333890;28;19924;-48
2022/02/27 19:02:36;;;;;;;;;;;16.40;32.50;;;;;;8334051;28;19917;-49
2022/02/27 19:06:41;;;;;;;;;;;16.40;32.60;;;;;;8333991;28;20372;-54
2022/02/27 19:10:42;;;;;;;;;;;16.40;32.70;;;;;;8333441;28;19968;-49
2022/02/27 19:14:43;;;;;;;;;;;16.40;32.60;;;;;;8333618;28;19924;-52
2022/02/27 19:18:43;;;;;;;;;;;16.40;32.70;;;;;;8333829;28;19913;-51
2022/02/27 19:22:43;;;;;;;;;;;16.40;32.70;;;;;;8332913;28;20274;-50
2022/02/27 19:26:44;;;;;;;;;;;16.40;32.60;;;;;;8333113;28;19917;-52
2022/02/27 19:30:48;;;;;;;;;;;16.40;32.40;;;;;;8332943;28;20362;-50
2022/02/27 19:34:50;;;;;;;;;;;16.40;32.50;;;;;;8331965;28;19917;-50
2022/02/27 19:38:51;;;;;;;;;;;16.40;32.60;;;;;;8333327;28;19963;-48
2022/02/27 19:42:52;;;;;;;;;;;16.30;32.50;;;;;;8332761;28;19931;-50
2022/02/27 19:46:52;;;;;;;;;;;16.30;32.60;;;;;;8332153;28;19924;-50
2022/02/27 19:50:53;;;;;;;;;;;16.40;32.50;;;;;;8332210;28;20397;-49
2022/02/27 19:54:53;;;;;;;;;;;16.40;32.50;;;;;;8332202;28;20377;-51
2022/02/27 19:58:54;;;;;;;;;;;16.30;32.60;;;;;;8332003;28;19959;-48
2022/02/27 20:02:56;;;;;;;;;;;16.40;32.60;;;;;;8332352;28;19971;-49
2022/02/27 20:06:57;;;;;;;;;;;16.30;32.50;;;;;;8329504;28;19999;-53
2022/02/27 20:10:57;;;;;;;;;;;16.40;32.60;;;;;;8331360;28;19925;-52
2022/02/27 20:14:57;;;;;;;;;;;16.30;32.50;;;;;;8331594;28;20000;-53
2022/02/27 20:18:58;;;;;;;;;;;16.30;32.40;;;;;;8331656;28;19919;-50
2022/02/27 20:22:59;;;;;;;;;;;16.40;32.40;;;;;;8331012;28;20338;-51
2022/02/27 20:26:59;;;;;;;;;;;16.30;32.40;;;;;;8331326;28;20397;-54
2022/02/27 20:31:00;;;;;;;;;;;16.30;32.40;;;;;;8330962;28;19972;-50
2022/02/27 20:35:01;;;;;;;;;;;16.30;32.40;;;;;;8330529;28;19923;-51
2022/02/27 20:39:01;;;;;;;;;;;16.30;32.30;;;;;;8331443;28;20016;-51
2022/02/27 20:43:02;;;;;;;;;;;16.30;32.30;;;;;;8330821;28;20007;-49
2022/02/27 20:47:02;;;;;;;;;;;16.30;32.40;;;;;;8329419;28;20027;-50
2022/02/27 20:51:03;;;;;;;;;;;16.30;32.40;;;;;;8330487;28;19929;-53
2022/02/27 20:55:06;;;;;;;;;;;16.40;32.40;;;;;;8330552;28;19928;-50
2022/02/27 20:59:06;;;;;;;;;;;16.30;32.40;;;;;;8330139;28;20271;-51
2022/02/27 21:03:06;;;;;;;;;;;16.30;32.30;;;;;;8330518;28;19921;-49
2022/02/27 21:07:07;;;;;;;;;;;16.30;32.30;;;;;;8330115;28;19948;-49
2022/02/27 21:11:08;;;;;;;;;;;16.30;32.40;;;;;;8329611;28;19932;-52
2022/02/27 21:15:09;;;;;;;;;;;16.30;32.40;;;;;;8330277;28;19971;-49
2022/02/27 21:19:09;;;;;;;;;;;16.30;32.40;;;;;;8330296;28;19996;-49
2022/02/27 21:23:10;;;;;;;;;;;16.30;32.40;;;;;;8329672;28;19943;-49
2022/02/27 21:27:10;;;;;;;;;;;16.30;32.40;;;;;;8330048;28;19917;-52
2022/02/27 21:31:11;;;;;;;;;;;16.30;32.30;;;;;;8330123;28;19925;-53
2022/02/27 21:35:18;;;;;;;;;;;16.30;32.30;;;;;;8329195;28;19929;-52
2022/02/27 21:39:24;;;;;;;;;;;16.30;32.30;;;;;;8330281;28;19919;-53
2022/02/27 21:43:24;;;;;;;;;;;16.30;32.20;;;;;;8329375;28;19918;-52
2022/02/27 21:47:25;;;;;;;;;;;16.30;32.30;;;;;;8329598;28;20432;-53
2022/02/27 21:51:27;;;;;;;;;;;16.30;32.20;;;;;;8329342;28;20378;-54
2022/02/27 21:55:28;;;;;;;;;;;16.20;32.20;;;;;;8329059;28;19929;-52
2022/02/27 21:59:30;;;;;;;;;;;16.20;32.20;;;;;;8332514;28;20371;-51
2022/02/27 22:03:31;;;;;;;;;;;16.20;32.20;;;;;;8335936;28;20004;-49
2022/02/27 22:07:31;;;;;;;;;;;16.20;32.20;;;;;;8335158;28;19918;-53
2022/02/27 22:11:32;;;;;;;;;;;16.20;32.20;;;;;;8349129;28;20386;-49
2022/02/27 22:15:32;;;;;;;;;;;16.20;32.20;;;;;;8335619;28;19921;-50
2022/02/27 22:19:33;;;;;;;;;;;16.20;32.10;;;;;;8335306;28;19920;-50
2022/02/27 22:23:33;;;;;;;;;;;16.20;32.20;;;;;;8335377;28;19917;-53
2022/02/27 22:27:34;;;;;;;;;;;16.20;32.10;;;;;;8334957;28;19958;-54
2022/02/27 22:31:34;;;;;;;;;;;16.20;32.20;;;;;;8334536;28;19925;-51
2022/02/27 22:35:34;;;;;;;;;;;16.10;32.20;;;;;;8334950;28;20362;-48
2022/02/27 22:39:35;;;;;;;;;;;16.10;32.20;;;;;;8335117;28;20024;-54
2022/02/27 22:43:36;;;;;;;;;;;16.10;32.10;;;;;;8334067;28;19928;-50
2022/02/27 22:47:36;;;;;;;;;;;16.10;32.10;;;;;;8334850;28;20321;-47
2022/02/27 22:51:38;;;;;;;;;;;16.10;32.20;;;;;;8334671;28;19932;-52
2022/02/27 22:55:39;;;;;;;;;;;16.10;32.10;;;;;;8333745;28;19930;-47
2022/02/27 22:59:39;;;;;;;;;;;16.10;32.10;;;;;;8334270;28;20370;-48
2022/02/27 23:12:18;;;;;;;;;;;16.10;32.20;;;;;;8332855;28;20400;-48
2022/02/27 23:16:19;;;;;;;;;;;16.10;32.20;;;;;;8333652;28;19917;-47
2022/02/27 23:20:19;;;;;;;;;;;16.10;32.10;;;;;;8333238;28;20007;-49
2022/02/27 23:24:20;;;;;;;;;;;16.10;32.10;;;;;;8333267;28;20285;-50
2022/02/27 23:28:21;;;;;;;;;;;16.10;32.10;;;;;;8333476;28;19925;-50
2022/02/27 23:32:21;;;;;;;;;;;16.00;32.20;;;;;;8332672;28;19932;-49